createdAt,value
2022-10-15T00:02:15.429Z,13.94
2022-10-15T00:04:50.527Z,13.93
2022-10-15T00:07:24.400Z,13.94
2022-10-15T00:09:58.358Z,13.93
2022-10-15T00:12:31.978Z,13.93
2022-10-15T00:15:06.553Z,13.94
2022-10-15T00:17:40.130Z,13.95
2022-10-15T00:20:15.392Z,13.94
2022-10-15T00:22:48.903Z,13.96
2022-10-15T00:25:22.892Z,13.95
2022-10-15T00:27:56.457Z,13.96
2022-10-15T00:30:30.215Z,13.97
2022-10-15T00:33:03.909Z,13.96
2022-10-15T00:35:39.125Z,13.96
2022-10-15T00:38:12.738Z,13.97
2022-10-15T00:40:46.564Z,13.97
2022-10-15T00:43:38.607Z,13.98
2022-10-15T00:46:21.549Z,13.98
2022-10-15T00:48:59.374Z,14.00
2022-10-15T00:51:40.749Z,14.03
2022-10-15T00:54:16.147Z,14.02
2022-10-15T00:56:51.753Z,14.04
2022-10-15T00:59:28.472Z,14.04
2022-10-15T01:02:03.051Z,14.07
2022-10-15T01:04:37.667Z,14.08
2022-10-15T01:07:12.903Z,14.12
2022-10-15T01:09:46.811Z,14.14
2022-10-15T01:12:29.439Z,14.17
2022-10-15T01:15:10.685Z,14.20
2022-10-15T01:17:48.999Z,14.18
2022-10-15T01:20:57.819Z,14.12
2022-10-15T01:24:05.063Z,14.08
2022-10-15T01:27:08.075Z,14.06
2022-10-15T01:30:05.753Z,14.09
2022-10-15T01:32:49.048Z,14.07
2022-10-15T01:35:32.857Z,14.12
2022-10-15T01:38:17.447Z,14.10
2022-10-15T01:40:56.575Z,14.08
2022-10-15T01:43:36.595Z,14.08
2022-10-15T01:46:17.241Z,14.08
2022-10-15T01:48:55.377Z,14.06
2022-10-15T01:51:31.837Z,14.04
2022-10-15T01:54:08.780Z,14.01
2022-10-15T01:56:49.537Z,14.01
2022-10-15T01:59:28.205Z,14.00
2022-10-15T02:02:02.084Z,13.97
2022-10-15T02:04:37.131Z,13.90
2022-10-15T02:07:15.766Z,13.87
2022-10-15T02:09:58.268Z,13.90
2022-10-15T02:12:42.508Z,13.89
2022-10-15T02:15:20.328Z,13.85
2022-10-15T02:18:03.107Z,13.86
2022-10-15T02:20:45.631Z,13.83
2022-10-15T02:23:22.192Z,13.76
2022-10-15T02:25:57.400Z,13.73
2022-10-15T02:28:34.021Z,13.71
2022-10-15T02:31:10.939Z,13.74
2022-10-15T02:33:45.834Z,13.74
2022-10-15T02:36:21.338Z,13.74
2022-10-15T02:38:57.846Z,13.73
2022-10-15T02:41:31.616Z,13.74
2022-10-15T02:44:05.831Z,13.74
2022-10-15T02:46:39.626Z,13.74
2022-10-15T02:49:13.594Z,13.79
2022-10-15T02:51:48.503Z,13.77
2022-10-15T02:54:22.526Z,13.79
2022-10-15T02:56:56.130Z,13.71
2022-10-15T02:59:29.918Z,13.67
2022-10-15T03:02:03.491Z,13.55
2022-10-15T03:04:37.258Z,13.57
2022-10-15T03:07:12.215Z,13.42
2022-10-15T03:09:46.028Z,13.41
2022-10-15T03:12:20.921Z,13.42
2022-10-15T03:14:55.445Z,13.48
2022-10-15T03:17:29.023Z,13.46
2022-10-15T03:20:02.972Z,13.45
2022-10-15T03:22:38.122Z,13.47
2022-10-15T03:25:12.419Z,13.37
2022-10-15T03:27:46.475Z,13.32
2022-10-15T03:30:20.654Z,13.27
2022-10-15T03:32:54.185Z,13.29
2022-10-15T03:35:27.973Z,13.21
2022-10-15T03:38:02.913Z,13.12
2022-10-15T03:40:37.034Z,13.10
2022-10-15T03:43:10.455Z,13.10
2022-10-15T03:45:44.169Z,13.02
2022-10-15T03:48:17.789Z,13.01
2022-10-15T03:50:51.465Z,12.97
2022-10-15T03:53:26.629Z,12.96
2022-10-15T03:56:04.560Z,12.90
2022-10-15T03:58:38.474Z,12.81
2022-10-15T04:01:13.773Z,12.74
2022-10-15T04:03:47.442Z,12.69
2022-10-15T04:06:21.633Z,12.66
2022-10-15T04:08:56.719Z,12.64
2022-10-15T04:11:30.789Z,12.60
2022-10-15T04:14:04.538Z,12.59
2022-10-15T04:16:38.643Z,12.63
2022-10-15T04:19:12.191Z,12.67
2022-10-15T04:21:45.885Z,12.70
2022-10-15T04:24:20.998Z,12.75
2022-10-15T04:26:54.860Z,12.79
2022-10-15T04:29:28.610Z,12.82
2022-10-15T04:32:02.366Z,12.84
2022-10-15T04:34:35.850Z,12.91
2022-10-15T04:37:09.621Z,12.89
2022-10-15T04:39:44.469Z,12.91
2022-10-15T04:42:18.181Z,12.97
2022-10-15T04:44:51.703Z,13.00
2022-10-15T04:47:26.641Z,13.02
2022-10-15T04:50:00.368Z,13.03
2022-10-15T04:52:35.524Z,13.04
2022-10-15T04:55:10.696Z,13.09
2022-10-15T04:57:44.525Z,13.12
2022-10-15T05:00:18.249Z,13.13
2022-10-15T05:02:52.018Z,13.14
2022-10-15T05:05:25.676Z,13.15
2022-10-15T05:08:01.107Z,13.14
2022-10-15T05:10:36.100Z,13.14
2022-10-15T05:13:10.058Z,13.11
2022-10-15T05:15:43.714Z,13.11
2022-10-15T05:18:17.569Z,13.00
2022-10-15T05:20:51.238Z,12.96
2022-10-15T05:23:25.084Z,12.91
2022-10-15T05:26:02.156Z,12.87
2022-10-15T05:28:36.333Z,12.87
2022-10-15T05:31:14.864Z,12.94
2022-10-15T05:33:54.380Z,12.84
2022-10-15T05:36:30.469Z,12.81
2022-10-15T05:39:10.417Z,12.72
2022-10-15T05:41:45.362Z,12.77
2022-10-15T05:44:19.197Z,12.84
2022-10-15T05:46:53.013Z,12.92
2022-10-15T05:49:26.809Z,12.91
2022-10-15T05:52:00.426Z,12.92
2022-10-15T05:54:34.284Z,12.95
2022-10-15T05:57:09.359Z,13.00
2022-10-15T05:59:43.178Z,12.87
2022-10-15T06:02:16.923Z,12.83
2022-10-15T06:04:52.343Z,12.87
2022-10-15T06:07:26.770Z,12.87
2022-10-15T06:10:00.508Z,12.80
2022-10-15T06:12:35.704Z,12.82
2022-10-15T06:15:10.275Z,12.85
2022-10-15T06:17:44.021Z,12.94
2022-10-15T06:20:18.074Z,12.91
2022-10-15T06:22:51.886Z,12.94
2022-10-15T06:25:25.989Z,12.95
2022-10-15T06:28:04.389Z,13.01
2022-10-15T06:30:38.190Z,13.04
2022-10-15T06:35:50.959Z,12.98
2022-10-15T06:38:25.403Z,12.97
2022-10-15T06:40:59.252Z,12.92
2022-10-15T06:43:35.275Z,12.96
2022-10-15T06:46:10.052Z,12.97
2022-10-15T06:48:43.711Z,13.00
2022-10-15T06:51:17.722Z,13.01
2022-10-15T06:53:51.431Z,12.98
2022-10-15T06:56:25.161Z,12.98
2022-10-15T06:59:00.070Z,13.02
2022-10-15T07:01:37.188Z,12.91
2022-10-15T07:04:13.444Z,12.95
2022-10-15T07:06:47.144Z,12.98
2022-10-15T07:09:20.709Z,12.97
2022-10-15T07:11:54.843Z,13.04
2022-10-15T07:14:29.683Z,13.08
2022-10-15T07:17:03.442Z,13.04
2022-10-15T07:19:36.895Z,13.06
2022-10-15T07:22:11.266Z,13.13
2022-10-15T07:24:44.789Z,13.19
2022-10-15T07:27:19.224Z,13.20
2022-10-15T07:29:54.333Z,13.23
2022-10-15T07:32:28.192Z,13.21
2022-10-15T07:35:05.269Z,13.16
2022-10-15T07:37:39.175Z,13.20
2022-10-15T07:40:13.587Z,13.22
2022-10-15T07:42:53.992Z,13.25
2022-10-15T07:45:29.091Z,13.35
2022-10-15T07:48:02.955Z,13.37
2022-10-15T07:50:38.149Z,13.35
2022-10-15T07:53:14.831Z,13.39
2022-10-15T07:55:50.526Z,13.37
2022-10-15T07:58:24.649Z,13.38
2022-10-15T08:01:02.479Z,13.41
2022-10-15T08:03:36.781Z,13.42
2022-10-15T08:06:10.280Z,13.57
2022-10-15T08:08:44.989Z,13.65
2022-10-15T08:11:18.646Z,13.77
2022-10-15T08:13:54.010Z,13.74
2022-10-15T08:16:28.980Z,13.80
2022-10-15T08:19:02.770Z,13.86
2022-10-15T08:21:36.287Z,14.02
2022-10-15T08:24:10.134Z,14.11
2022-10-15T08:26:43.966Z,14.10
2022-10-15T08:29:17.926Z,14.10
2022-10-15T08:31:52.954Z,14.27
2022-10-15T08:34:27.245Z,14.28
2022-10-15T08:37:01.105Z,14.36
2022-10-15T08:39:34.889Z,14.45
2022-10-15T08:42:16.731Z,14.34
2022-10-15T08:44:55.307Z,14.25
2022-10-15T08:47:37.737Z,14.19
2022-10-15T08:50:23.095Z,14.23
2022-10-15T08:53:00.439Z,14.26
2022-10-15T08:55:39.843Z,14.22
2022-10-15T08:58:17.844Z,14.32
2022-10-15T09:00:53.711Z,14.27
2022-10-15T09:03:37.651Z,14.33
2022-10-15T09:06:20.497Z,14.39
2022-10-15T09:09:00.752Z,14.30
2022-10-15T09:11:43.433Z,14.36
2022-10-15T09:14:20.913Z,14.38
2022-10-15T09:16:54.944Z,14.32
2022-10-15T09:19:31.008Z,14.34
2022-10-15T09:22:04.680Z,14.50
2022-10-15T09:24:38.081Z,14.75
2022-10-15T09:27:26.048Z,14.84
2022-10-15T09:30:08.241Z,14.98
2022-10-15T09:32:49.494Z,15.07
2022-10-15T09:35:30.207Z,15.03
2022-10-15T09:38:21.543Z,14.95
2022-10-15T09:43:50.792Z,15.04
2022-10-15T09:46:24.314Z,15.05
2022-10-15T09:49:07.218Z,15.05
2022-10-15T09:51:51.602Z,14.98
2022-10-15T09:54:35.295Z,15.20
2022-10-15T09:57:12.435Z,15.45
2022-10-15T09:59:57.366Z,15.65
2022-10-15T10:02:31.900Z,15.62
2022-10-15T10:05:21.132Z,15.97
2022-10-15T10:08:10.160Z,15.99
2022-10-15T10:10:46.720Z,15.79
2022-10-15T10:13:25.516Z,15.76
2022-10-15T10:16:05.254Z,15.79
2022-10-15T10:18:39.570Z,15.86
2022-10-15T10:21:24.046Z,16.06
2022-10-15T10:24:16.707Z,16.27
2022-10-15T10:26:50.505Z,16.15
2022-10-15T10:29:40.554Z,16.14
2022-10-15T10:32:21.029Z,16.16
2022-10-15T10:34:55.929Z,16.29
2022-10-15T10:37:30.635Z,16.48
2022-10-15T10:40:20.635Z,16.41
2022-10-15T10:43:13.199Z,16.43
2022-10-15T10:45:54.701Z,16.44
2022-10-15T10:48:30.912Z,16.49
2022-10-15T10:51:15.340Z,16.59
2022-10-15T10:53:57.014Z,16.60
2022-10-15T10:56:35.915Z,16.61
2022-10-15T10:59:14.670Z,16.90
2022-10-15T11:01:48.421Z,16.83
2022-10-15T11:04:26.813Z,16.60
2022-10-15T11:07:04.715Z,16.80
2022-10-15T11:09:51.104Z,16.88
2022-10-15T11:12:49.505Z,17.05
2022-10-15T11:15:34.556Z,17.20
2022-10-15T11:18:27.023Z,17.29
2022-10-15T11:21:11.720Z,16.90
2022-10-15T11:24:03.919Z,16.73
2022-10-15T11:27:10.593Z,17.06
2022-10-15T11:29:57.274Z,17.06
2022-10-15T11:33:05.550Z,16.94
2022-10-15T11:35:54.868Z,16.70
2022-10-15T11:38:36.963Z,16.84
2022-10-15T11:41:30.394Z,17.05
2022-10-15T11:44:23.891Z,17.34
2022-10-15T11:47:11.574Z,17.38
2022-10-15T11:49:56.824Z,17.29
2022-10-15T11:52:44.444Z,17.29
2022-10-15T11:55:21.769Z,17.23
2022-10-15T11:58:01.508Z,17.30
2022-10-15T12:00:40.276Z,17.08
2022-10-15T12:03:19.341Z,17.01
2022-10-15T12:05:57.728Z,16.98
2022-10-15T12:08:35.550Z,17.21
2022-10-15T12:11:22.811Z,17.48
2022-10-15T12:14:01.859Z,17.49
2022-10-15T12:16:40.683Z,17.48
2022-10-15T12:19:19.401Z,17.48
2022-10-15T12:22:08.127Z,17.50
2022-10-15T12:24:53.683Z,17.37
2022-10-15T12:27:34.413Z,17.22
2022-10-15T12:30:24.190Z,17.09
2022-10-15T12:32:58.031Z,17.18
2022-10-15T12:35:36.476Z,17.17
2022-10-15T12:38:21.349Z,17.14
2022-10-15T12:41:00.979Z,17.14
2022-10-15T12:43:38.757Z,17.20
2022-10-15T12:46:14.505Z,17.35
2022-10-15T12:48:48.256Z,17.48
2022-10-15T12:51:41.541Z,17.63
2022-10-15T12:54:38.995Z,17.75
2022-10-15T12:57:49.857Z,17.87
2022-10-15T13:00:47.586Z,17.93
2022-10-15T13:03:38.903Z,18.07
2022-10-15T13:06:24.930Z,18.13
2022-10-15T13:09:06.855Z,17.82
2022-10-15T13:11:45.006Z,17.74
2022-10-15T13:14:36.160Z,17.81
2022-10-15T13:17:17.480Z,17.68
2022-10-15T13:19:59.089Z,17.66
2022-10-15T13:22:35.802Z,17.62
2022-10-15T13:25:18.442Z,17.81
2022-10-15T13:27:52.183Z,17.72
2022-10-15T13:30:25.847Z,17.71
2022-10-15T13:32:59.986Z,17.63
2022-10-15T13:35:40.721Z,17.67
2022-10-15T13:38:22.865Z,17.63
2022-10-15T13:40:58.051Z,17.45
2022-10-15T13:43:31.996Z,17.52
2022-10-15T13:46:05.911Z,17.44
2022-10-15T13:51:17.466Z,17.58
2022-10-15T13:53:51.582Z,17.60
2022-10-15T13:56:30.650Z,17.59
2022-10-15T13:59:05.247Z,17.58
2022-10-15T14:01:47.415Z,17.69
2022-10-15T14:04:23.242Z,17.75
2022-10-15T14:09:42.403Z,17.41
2022-10-15T14:12:17.385Z,17.43
2022-10-15T14:14:51.094Z,17.41
2022-10-15T14:17:27.366Z,17.48
2022-10-15T14:20:26.303Z,17.52
2022-10-15T14:22:59.570Z,17.62
2022-10-15T14:25:33.387Z,17.66
2022-10-15T14:28:20.365Z,17.47
2022-10-15T14:30:55.302Z,17.37
2022-10-15T14:33:35.151Z,17.35
2022-10-15T14:36:13.351Z,17.38
2022-10-15T14:38:46.910Z,17.28
2022-10-15T14:41:29.368Z,17.33
2022-10-15T14:44:08.077Z,17.41
2022-10-15T14:46:42.914Z,17.39
2022-10-15T14:49:24.279Z,17.53
2022-10-15T14:52:02.297Z,17.51
2022-10-15T14:54:43.026Z,17.49
2022-10-15T14:57:24.048Z,17.44
2022-10-15T15:00:00.219Z,17.31
2022-10-15T15:02:34.376Z,17.29
2022-10-15T15:05:18.298Z,17.24
2022-10-15T15:07:52.648Z,17.18
2022-10-15T15:10:28.461Z,17.18
2022-10-15T15:13:02.264Z,17.23
2022-10-15T15:15:37.156Z,17.26
2022-10-15T15:18:11.574Z,17.16
2022-10-15T15:20:46.389Z,17.21
2022-10-15T15:23:22.146Z,17.16
2022-10-15T15:25:56.286Z,17.23
2022-10-15T15:28:31.083Z,17.29
2022-10-15T15:31:08.115Z,17.29
2022-10-15T15:33:42.299Z,17.29
2022-10-15T15:36:20.787Z,17.23
2022-10-15T15:38:59.800Z,17.13
2022-10-15T15:41:33.884Z,16.89
2022-10-15T15:44:08.101Z,16.74
2022-10-15T15:46:44.533Z,16.64
2022-10-15T15:49:19.158Z,16.57
2022-10-15T15:51:53.304Z,16.42
2022-10-15T15:54:27.114Z,16.34
2022-10-15T15:57:00.739Z,16.12
2022-10-15T15:59:34.642Z,15.90
2022-10-15T16:02:11.527Z,15.67
2022-10-15T16:04:45.941Z,15.53
2022-10-15T16:07:19.709Z,15.39
2022-10-15T16:09:53.493Z,15.32
2022-10-15T16:12:27.450Z,15.29
2022-10-15T16:15:01.201Z,15.31
2022-10-15T16:17:36.308Z,15.34
2022-10-15T16:20:11.846Z,15.34
2022-10-15T16:22:45.514Z,15.31
2022-10-15T16:25:20.071Z,15.28
2022-10-15T16:27:56.668Z,15.34
2022-10-15T16:30:30.822Z,15.34
2022-10-15T16:33:09.951Z,15.36
2022-10-15T16:35:43.887Z,15.36
2022-10-15T16:38:17.324Z,15.40
2022-10-15T16:40:51.102Z,15.46
2022-10-15T16:43:24.847Z,15.50
2022-10-15T16:45:59.560Z,15.56
2022-10-15T16:48:34.997Z,15.49
2022-10-15T16:51:10.821Z,15.30
2022-10-15T16:53:46.320Z,15.16
2022-10-15T16:56:21.462Z,15.11
2022-10-15T16:58:56.016Z,15.14
2022-10-15T17:01:30.813Z,15.21
2022-10-15T17:04:06.170Z,15.24
2022-10-15T17:06:40.045Z,15.28
2022-10-15T17:09:13.617Z,15.31
2022-10-15T17:11:48.407Z,15.38
2022-10-15T17:14:21.927Z,15.40
2022-10-15T17:16:55.707Z,15.45
2022-10-15T17:19:33.382Z,15.48
2022-10-15T17:22:08.086Z,15.48
2022-10-15T17:24:41.526Z,15.48
2022-10-15T17:27:15.358Z,15.51
2022-10-15T17:29:48.926Z,15.43
2022-10-15T17:32:22.915Z,15.33
2022-10-15T17:35:01.355Z,15.27
2022-10-15T17:37:37.743Z,15.21
2022-10-15T17:40:12.167Z,15.17
2022-10-15T17:42:46.115Z,15.11
2022-10-15T17:45:19.660Z,15.06
2022-10-15T17:47:53.356Z,15.02
2022-10-15T17:50:29.790Z,15.03
2022-10-15T17:53:04.556Z,14.98
2022-10-15T17:55:38.222Z,14.98
2022-10-15T17:58:12.926Z,14.98
2022-10-15T18:00:53.830Z,14.98
2022-10-15T18:03:28.567Z,14.98
2022-10-15T18:06:09.014Z,15.02
2022-10-15T18:08:43.117Z,15.03
2022-10-15T18:11:19.679Z,15.05
2022-10-15T18:13:53.484Z,15.07
2022-10-15T18:16:27.717Z,15.07
2022-10-15T18:19:01.595Z,15.08
2022-10-15T18:21:36.517Z,15.09
2022-10-15T18:24:10.409Z,15.08
2022-10-15T18:26:45.097Z,15.11
2022-10-15T18:29:19.064Z,15.14
2022-10-15T18:31:57.326Z,15.15
2022-10-15T18:34:33.306Z,15.21
2022-10-15T18:37:08.207Z,15.24
2022-10-15T18:39:41.958Z,15.27
2022-10-15T18:42:15.419Z,15.32
2022-10-15T18:44:49.284Z,15.39
2022-10-15T18:47:23.039Z,15.36
2022-10-15T18:49:57.020Z,15.40
2022-10-15T18:52:39.766Z,15.40
2022-10-15T18:55:14.128Z,15.40
2022-10-15T18:57:47.672Z,15.41
2022-10-15T19:00:21.402Z,15.42
2022-10-15T19:02:56.538Z,15.43
2022-10-15T19:05:30.322Z,15.48
2022-10-15T19:08:06.275Z,15.48
2022-10-15T19:10:40.026Z,15.52
2022-10-15T19:13:13.573Z,15.54
2022-10-15T19:15:47.448Z,15.56
2022-10-15T19:18:21.253Z,15.59
2022-10-15T19:20:55.130Z,15.61
2022-10-15T19:23:30.129Z,15.63
2022-10-15T19:26:08.355Z,15.65
2022-10-15T19:28:42.148Z,15.66
2022-10-15T19:31:22.548Z,15.66
2022-10-15T19:33:57.955Z,15.67
2022-10-15T19:36:34.463Z,15.70
2022-10-15T19:39:16.151Z,15.70
2022-10-15T19:41:51.308Z,15.72
2022-10-15T19:44:27.473Z,15.77
2022-10-15T19:47:01.771Z,15.82
2022-10-15T19:49:35.528Z,15.81
2022-10-15T19:52:09.346Z,15.86
2022-10-15T19:54:44.201Z,15.88
2022-10-15T19:57:18.017Z,15.93
2022-10-15T19:59:51.487Z,15.91
2022-10-15T20:02:25.274Z,15.95
2022-10-15T20:04:58.891Z,15.92
2022-10-15T20:07:32.739Z,15.94
2022-10-15T20:10:09.309Z,15.94
2022-10-15T20:12:43.391Z,15.95
2022-10-15T20:15:17.185Z,15.98
2022-10-15T20:17:51.032Z,16.05
2022-10-15T20:20:24.613Z,16.10
2022-10-15T20:22:58.376Z,16.07
2022-10-15T20:25:33.737Z,16.04
2022-10-15T20:28:07.781Z,16.02
2022-10-15T20:30:41.647Z,16.00
2022-10-15T20:33:15.479Z,15.98
2022-10-15T20:35:50.489Z,15.99
2022-10-15T20:38:24.320Z,15.99
2022-10-15T20:40:59.341Z,15.97
2022-10-15T20:43:33.622Z,15.98
2022-10-15T20:46:11.420Z,16.03
2022-10-15T20:48:47.141Z,16.07
2022-10-15T20:51:23.473Z,16.07
2022-10-15T20:54:01.571Z,16.08
2022-10-15T20:56:36.619Z,16.04
2022-10-15T20:59:10.466Z,16.00
2022-10-15T21:01:44.210Z,15.97
2022-10-15T21:04:19.323Z,15.97
2022-10-15T21:06:52.905Z,15.87
2022-10-15T21:09:26.670Z,15.87
2022-10-15T21:12:01.669Z,15.83
2022-10-15T21:14:35.592Z,15.86
2022-10-15T21:17:09.277Z,15.82
2022-10-15T21:19:43.039Z,15.78
2022-10-15T21:22:16.466Z,15.78
2022-10-15T21:24:50.235Z,15.74
2022-10-15T21:27:25.382Z,15.72
2022-10-15T21:30:00.108Z,15.69
2022-10-15T21:32:34.955Z,15.70
2022-10-15T21:35:09.447Z,15.67
2022-10-15T21:37:42.964Z,15.64
2022-10-15T21:40:17.102Z,15.70
2022-10-15T21:42:52.180Z,15.68
2022-10-15T21:45:26.369Z,15.63
2022-10-15T21:47:59.830Z,15.59
2022-10-15T21:50:33.913Z,15.58
2022-10-15T21:53:07.867Z,15.50
2022-10-15T21:55:41.608Z,15.48
2022-10-15T21:58:16.516Z,15.53
2022-10-15T22:00:50.245Z,15.42
2022-10-15T22:03:23.914Z,15.39
2022-10-15T22:05:59.903Z,15.39
2022-10-15T22:08:34.200Z,15.31
2022-10-15T22:11:09.873Z,15.27
2022-10-15T22:13:48.495Z,15.20
2022-10-15T22:16:23.070Z,15.11
2022-10-15T22:18:57.737Z,15.12
2022-10-15T22:21:33.100Z,15.11
2022-10-15T22:24:09.246Z,15.10
2022-10-15T22:26:45.074Z,15.05
2022-10-15T22:29:22.196Z,14.97
2022-10-15T22:31:56.739Z,14.91
2022-10-15T22:34:30.310Z,14.86
2022-10-15T22:37:03.979Z,14.82
2022-10-15T22:39:37.404Z,14.80
2022-10-15T22:42:11.151Z,14.77
2022-10-15T22:44:46.003Z,14.73
2022-10-15T22:47:19.837Z,14.75
2022-10-15T22:49:53.493Z,14.73
2022-10-15T22:52:27.688Z,14.73
2022-10-15T22:55:01.679Z,14.75
2022-10-15T22:57:35.625Z,14.77
2022-10-15T23:00:12.410Z,14.76
2022-10-15T23:02:46.590Z,14.73
2022-10-15T23:05:20.076Z,14.74
2022-10-15T23:07:53.839Z,14.71
2022-10-15T23:10:27.489Z,14.70
2022-10-15T23:13:01.326Z,14.66
2022-10-15T23:15:36.561Z,14.64
2022-10-15T23:18:10.298Z,14.68
2022-10-15T23:20:43.975Z,14.67
2022-10-15T23:23:17.741Z,14.66
2022-10-15T23:25:51.195Z,14.68
2022-10-15T23:28:25.045Z,14.70
2022-10-15T23:30:59.969Z,14.69
2022-10-15T23:33:34.086Z,14.67
2022-10-15T23:36:08.147Z,14.66
2022-10-15T23:38:42.571Z,14.64
2022-10-15T23:41:16.618Z,14.64
2022-10-15T23:43:50.872Z,14.63
2022-10-15T23:46:26.001Z,14.64
2022-10-15T23:48:59.867Z,14.63
2022-10-15T23:51:34.596Z,14.61
2022-10-15T23:54:14.377Z,14.64
2022-10-15T23:56:48.421Z,14.64
2022-10-15T23:59:22.616Z,14.64
